createdAt,value
2022-10-21T07:19:08.304Z,13.73
2022-10-21T07:57:07.170Z,12.73
2022-10-21T08:02:00.835Z,11.87
2022-10-21T08:22:22.303Z,10.33
2022-10-21T08:27:15.922Z,10.50
2022-10-21T08:32:09.695Z,10.53
2022-10-21T08:37:03.666Z,9.03
2022-10-21T08:42:12.216Z,9.60
2022-10-21T08:47:13.192Z,9.57
2022-10-21T08:52:11.237Z,10.50
2022-10-21T08:57:06.841Z,9.37
2022-10-21T09:02:07.439Z,10.40
2022-10-21T09:07:08.415Z,9.57
2022-10-21T09:12:14.552Z,10.10
2022-10-21T09:17:18.691Z,9.40
2022-10-21T09:22:40.538Z,9.47
2022-10-21T09:27:54.934Z,10.03
2022-10-21T09:32:49.993Z,10.80
2022-10-21T09:37:47.189Z,9.80
2022-10-21T09:42:47.493Z,9.80
2022-10-21T09:47:41.716Z,9.80
2022-10-21T09:52:38.377Z,11.93
2022-10-21T09:57:42.366Z,10.90
2022-10-21T10:02:39.552Z,10.80
2022-10-21T10:07:36.606Z,11.17
2022-10-21T10:12:31.518Z,11.37
2022-10-21T10:17:31.573Z,11.33
2022-10-21T10:22:27.796Z,11.03
2022-10-21T10:27:26.682Z,11.67
2022-10-21T10:32:20.575Z,12.63
2022-10-21T10:37:19.752Z,11.57
2022-10-21T10:42:18.849Z,11.67
2022-10-21T10:47:22.202Z,11.70
2022-10-21T10:52:21.835Z,12.50
2022-10-21T10:57:19.823Z,13.10
2022-10-21T11:02:29.443Z,13.90
2022-10-21T11:07:28.589Z,12.80
2022-10-21T11:12:27.398Z,13.43
2022-10-21T11:17:26.586Z,14.13
2022-10-21T11:22:29.362Z,14.17
2022-10-21T11:27:46.670Z,14.03
2022-10-21T11:32:53.168Z,13.37
2022-10-21T11:38:06.082Z,13.73
2022-10-21T11:43:07.039Z,14.10
2022-10-21T11:48:10.006Z,13.83
2022-10-21T11:53:26.319Z,13.67
2022-10-21T11:58:42.243Z,13.90
2022-10-21T12:03:49.984Z,13.70
2022-10-21T12:08:51.683Z,14.17
2022-10-21T12:13:51.626Z,15.13
2022-10-21T12:18:51.599Z,13.37
2022-10-21T12:23:48.300Z,12.97
2022-10-21T12:28:50.852Z,14.00
2022-10-21T12:33:46.245Z,14.47
2022-10-21T12:38:48.808Z,14.30
2022-10-21T12:43:53.705Z,14.37
2022-10-21T12:48:52.509Z,15.00
2022-10-21T12:58:46.867Z,14.57
2022-10-21T13:03:55.365Z,14.67
2022-10-21T13:08:58.677Z,15.33
2022-10-21T13:14:21.900Z,15.10
2022-10-21T13:19:44.848Z,15.77
2022-10-21T13:24:38.978Z,16.60
2022-10-21T13:29:44.213Z,16.30
2022-10-21T13:34:43.038Z,16.17
2022-10-21T13:39:37.043Z,15.77
2022-10-21T13:44:35.745Z,15.63
2022-10-21T13:49:31.212Z,15.70
2022-10-21T13:54:26.541Z,15.60
2022-10-21T13:59:24.474Z,15.77
2022-10-21T14:04:21.255Z,15.80
2022-10-21T14:09:20.501Z,15.97
2022-10-21T14:14:18.774Z,16.43
2022-10-21T14:19:20.133Z,15.60
2022-10-21T14:24:29.235Z,16.20
2022-10-21T14:29:27.336Z,15.67
2022-10-21T14:34:24.418Z,16.13
2022-10-21T14:39:23.082Z,14.97
2022-10-21T14:44:20.983Z,15.40
2022-10-21T14:49:26.118Z,15.93
2022-10-21T14:54:30.554Z,17.03
2022-10-21T14:59:26.725Z,15.63
2022-10-21T15:04:44.763Z,16.93
2022-10-21T15:09:38.383Z,17.73
2022-10-21T15:14:33.171Z,17.10
2022-10-21T15:19:29.771Z,16.47
2022-10-21T15:24:31.856Z,16.43
2022-10-21T15:29:30.893Z,15.93
2022-10-21T15:34:24.858Z,19.33
